createdAt,value
2022-08-26T00:02:07.458Z,101634.98
2022-08-26T00:04:36.827Z,101633.77
2022-08-26T00:07:06.009Z,101629.23
2022-08-26T00:09:37.326Z,101627.28
2022-08-26T00:12:12.350Z,101628.05
2022-08-26T00:14:41.823Z,101626.80
2022-08-26T00:17:10.115Z,101625.18
2022-08-26T00:20:05.881Z,101622.52
2022-08-26T00:22:34.151Z,101619.80
2022-08-26T00:25:02.365Z,101619.05
2022-08-26T00:27:34.029Z,101616.83
2022-08-26T00:30:09.477Z,101615.52
2022-08-26T00:32:37.953Z,101615.76
2022-08-26T00:35:08.838Z,101615.06
2022-08-26T00:37:41.955Z,101614.36
2022-08-26T00:40:15.451Z,101614.53
2022-08-26T00:42:45.842Z,101618.70
2022-08-26T00:45:15.406Z,101620.42
2022-08-26T00:47:59.219Z,101617.55
2022-08-26T00:50:33.317Z,101615.92
2022-08-26T00:53:04.890Z,101601.48
2022-08-26T00:55:39.697Z,101615.26
2022-08-26T00:58:34.306Z,101615.88
2022-08-26T01:01:02.739Z,101615.70
2022-08-26T01:03:33.837Z,101615.55
2022-08-26T01:06:27.530Z,101614.08
2022-08-26T01:08:56.229Z,101615.27
2022-08-26T01:11:52.925Z,101616.04
2022-08-26T01:14:24.857Z,101616.15
2022-08-26T01:16:53.209Z,101612.36
2022-08-26T01:19:51.813Z,101609.65
2022-08-26T01:22:28.161Z,101609.27
2022-08-26T01:25:03.597Z,101609.60
2022-08-26T01:27:35.674Z,101612.53
2022-08-26T01:30:07.815Z,101603.06
2022-08-26T01:32:36.595Z,101608.96
2022-08-26T01:35:08.106Z,101608.33
2022-08-26T01:37:40.464Z,101610.92
2022-08-26T01:40:12.666Z,101612.59
2022-08-26T01:43:07.483Z,101596.77
2022-08-26T01:45:40.635Z,101609.87
2022-08-26T01:48:34.654Z,101608.95
2022-08-26T01:51:30.502Z,101614.23
2022-08-26T01:53:58.778Z,101613.30
2022-08-26T01:56:53.727Z,101614.25
2022-08-26T01:59:24.667Z,101611.33
2022-08-26T02:02:17.998Z,101612.95
2022-08-26T02:04:57.479Z,101605.16
2022-08-26T02:07:26.870Z,101611.13
2022-08-26T02:10:20.796Z,101604.95
2022-08-26T02:12:48.981Z,101602.98
2022-08-26T02:15:17.306Z,101602.33
2022-08-26T02:18:14.159Z,101597.45
2022-08-26T02:20:51.718Z,101598.05
2022-08-26T02:23:20.101Z,101597.29
2022-08-26T02:26:19.892Z,101597.34
2022-08-26T02:29:16.065Z,101592.84
2022-08-26T02:32:10.682Z,101590.09
2022-08-26T02:34:39.836Z,101590.90
2022-08-26T02:37:10.425Z,101588.64
2022-08-26T02:39:42.848Z,101589.09
2022-08-26T02:42:36.149Z,101588.98
2022-08-26T02:45:06.624Z,101589.73
2022-08-26T02:47:39.597Z,101591.52
2022-08-26T02:50:08.138Z,101592.66
2022-08-26T02:53:01.897Z,101589.18
2022-08-26T02:55:32.569Z,101585.10
2022-08-26T02:58:01.925Z,101590.10
2022-08-26T03:00:32.823Z,101588.86
2022-08-26T03:03:01.189Z,101587.40
2022-08-26T03:05:31.553Z,101584.85
2022-08-26T03:08:00.648Z,101584.20
2022-08-26T03:10:32.292Z,101585.64
2022-08-26T03:13:01.166Z,101581.35
2022-08-26T03:15:33.511Z,101581.19
2022-08-26T03:18:02.690Z,101578.80
2022-08-26T03:20:31.146Z,101580.05
2022-08-26T03:22:59.971Z,101577.83
2022-08-26T03:25:28.257Z,101579.45
2022-08-26T03:28:21.815Z,101577.48
2022-08-26T03:30:50.713Z,101578.70
2022-08-26T03:33:19.617Z,101579.56
2022-08-26T03:36:12.597Z,101579.67
2022-08-26T03:38:40.825Z,101577.15
2022-08-26T03:41:11.185Z,101579.45
2022-08-26T03:43:40.768Z,101575.55
2022-08-26T03:46:12.131Z,101574.23
2022-08-26T03:48:41.185Z,101574.42
2022-08-26T03:51:18.392Z,101555.55
2022-08-26T03:53:50.713Z,101567.88
2022-08-26T03:56:43.982Z,101561.55
2022-08-26T03:59:14.865Z,101563.17
2022-08-26T04:02:11.603Z,101561.71
2022-08-26T04:04:40.397Z,101566.49
2022-08-26T04:07:34.157Z,101563.29
2022-08-26T04:10:05.829Z,101564.19
2022-08-26T04:12:34.289Z,101564.98
2022-08-26T04:15:03.745Z,101566.36
2022-08-26T04:17:32.093Z,101569.84
2022-08-26T04:20:00.248Z,101574.86
2022-08-26T04:22:29.376Z,101578.83
2022-08-26T04:25:01.583Z,101581.96
2022-08-26T04:27:30.048Z,101570.14
2022-08-26T04:30:23.940Z,101583.88
2022-08-26T04:32:53.791Z,101583.35
2022-08-26T04:35:46.951Z,101584.88
2022-08-26T04:38:16.993Z,101588.18
2022-08-26T04:40:47.749Z,101589.91
2022-08-26T04:43:15.901Z,101576.02
2022-08-26T04:45:44.236Z,101570.39
2022-08-26T04:48:12.429Z,101584.45
2022-08-26T04:50:43.839Z,101584.18
2022-08-26T04:53:13.534Z,101584.88
2022-08-26T04:55:45.120Z,101587.36
2022-08-26T04:58:19.058Z,101584.83
2022-08-26T05:00:49.291Z,101587.73
2022-08-26T05:03:18.680Z,101590.01
2022-08-26T05:06:12.416Z,101591.97
2022-08-26T05:08:41.255Z,101593.73
2022-08-26T05:11:35.855Z,101594.05
2022-08-26T05:14:06.089Z,101590.22
2022-08-26T05:16:34.244Z,101588.17
2022-08-26T05:19:03.650Z,101591.00
2022-08-26T05:21:31.809Z,101586.87
2022-08-26T05:24:01.091Z,101588.92
2022-08-26T05:26:56.433Z,101589.90
2022-08-26T05:29:25.418Z,101587.01
2022-08-26T05:31:53.697Z,101585.45
2022-08-26T05:34:25.778Z,101587.60
2022-08-26T05:36:58.672Z,101596.98
2022-08-26T05:39:26.991Z,101597.75
2022-08-26T05:41:55.183Z,101597.02
2022-08-26T05:44:24.076Z,101592.08
2022-08-26T05:46:52.603Z,101593.29
2022-08-26T05:49:51.338Z,101594.00
2022-08-26T05:52:44.883Z,101596.98
2022-08-26T05:55:13.076Z,101600.30
2022-08-26T05:57:42.791Z,101601.42
2022-08-26T06:00:15.542Z,101600.45
2022-08-26T06:03:09.235Z,101600.02
2022-08-26T06:05:42.154Z,101599.17
2022-08-26T06:08:14.192Z,101594.90
2022-08-26T06:10:52.937Z,101594.56
2022-08-26T06:13:28.049Z,101592.44
2022-08-26T06:16:04.616Z,101594.75
2022-08-26T06:18:36.596Z,101595.23
2022-08-26T06:21:18.523Z,101596.93
2022-08-26T06:24:33.478Z,101594.78
2022-08-26T06:27:30.666Z,101594.63
2022-08-26T06:30:01.153Z,101595.27
2022-08-26T06:32:29.325Z,101594.99
2022-08-26T06:34:58.065Z,101593.95
2022-08-26T06:37:27.446Z,101591.73
2022-08-26T06:40:23.515Z,101593.52
2022-08-26T06:42:51.761Z,101595.50
2022-08-26T06:45:19.977Z,101598.50
2022-08-26T06:47:48.117Z,101598.42
2022-08-26T06:50:17.797Z,101599.20
2022-08-26T06:52:46.677Z,101598.14
2022-08-26T06:55:14.997Z,101602.73
2022-08-26T06:58:10.049Z,101605.76
2022-08-26T07:00:39.026Z,101603.69
2022-08-26T07:03:10.737Z,101606.11
2022-08-26T07:05:39.181Z,101605.88
2022-08-26T07:08:07.308Z,101606.39
2022-08-26T07:10:36.413Z,101608.52
2022-08-26T07:13:05.879Z,101606.20
2022-08-26T07:15:40.396Z,101608.45
2022-08-26T07:18:09.351Z,101605.70
2022-08-26T07:20:40.477Z,101606.34
2022-08-26T07:23:11.841Z,101609.85
2022-08-26T07:25:41.671Z,101604.98
2022-08-26T07:28:10.071Z,101602.71
2022-08-26T07:30:41.055Z,101604.34
2022-08-26T07:33:09.988Z,101605.34
2022-08-26T07:35:39.499Z,101605.61
2022-08-26T07:38:08.412Z,101593.59
2022-08-26T07:40:38.034Z,101607.52
2022-08-26T07:43:06.368Z,101608.30
2022-08-26T07:45:34.668Z,101607.39
2022-08-26T07:48:27.991Z,101608.52
2022-08-26T07:50:59.327Z,101604.20
2022-08-26T07:53:27.536Z,101599.23
2022-08-26T07:55:55.714Z,101596.25
2022-08-26T07:58:24.179Z,101592.45
2022-08-26T08:00:52.862Z,101590.23
2022-08-26T08:03:22.082Z,101595.76
2022-08-26T08:05:50.499Z,101596.85
2022-08-26T08:08:27.884Z,101592.13
2022-08-26T08:10:57.618Z,101597.92
2022-08-26T08:13:28.226Z,101593.36
2022-08-26T08:15:56.423Z,101589.86
2022-08-26T08:18:24.639Z,101592.23
2022-08-26T08:21:04.708Z,101588.09
2022-08-26T08:23:39.825Z,101583.02
2022-08-26T08:26:10.973Z,101585.83
2022-08-26T08:28:39.804Z,101587.08
2022-08-26T08:31:10.083Z,101582.86
2022-08-26T08:33:38.312Z,101579.59
2022-08-26T08:36:09.168Z,101579.11
2022-08-26T08:38:37.492Z,101576.41
2022-08-26T08:41:05.773Z,101570.19
2022-08-26T08:43:45.057Z,101568.96
2022-08-26T08:46:17.056Z,101569.14
2022-08-26T08:48:51.301Z,101567.88
2022-08-26T08:51:27.260Z,101567.30
2022-08-26T08:53:56.996Z,101562.67
2022-08-26T08:56:28.254Z,101557.40
2022-08-26T08:59:20.436Z,101557.30
2022-08-26T09:01:52.519Z,101567.38
2022-08-26T09:05:00.598Z,101561.54
2022-08-26T09:07:36.380Z,101561.25
2022-08-26T09:10:23.144Z,101565.64
2022-08-26T09:12:52.364Z,101565.27
2022-08-26T09:15:30.683Z,101566.25
2022-08-26T09:18:10.872Z,101562.59
2022-08-26T09:21:06.525Z,101562.93
2022-08-26T09:23:38.349Z,101557.90
2022-08-26T09:26:24.697Z,101555.33
2022-08-26T09:29:00.967Z,101541.20
2022-08-26T09:31:30.994Z,101555.38
2022-08-26T09:34:11.967Z,101549.88
2022-08-26T09:36:47.571Z,101552.60
2022-08-26T09:39:25.799Z,101552.89
2022-08-26T09:42:06.202Z,101549.06
2022-08-26T09:45:00.602Z,101547.24
2022-08-26T09:47:47.331Z,101547.06
2022-08-26T09:50:33.515Z,101550.89
2022-08-26T09:53:16.067Z,101548.43
2022-08-26T09:55:47.882Z,101549.87
2022-08-26T09:58:37.950Z,101547.02
2022-08-26T10:01:09.777Z,101546.55
2022-08-26T10:03:39.814Z,101547.23
2022-08-26T10:06:28.810Z,101544.41
2022-08-26T10:09:04.537Z,101544.66
2022-08-26T10:11:39.895Z,101540.85
2022-08-26T10:14:21.521Z,101541.67
2022-08-26T10:17:11.779Z,101540.16
2022-08-26T10:19:56.275Z,101539.84
2022-08-26T10:22:45.818Z,101539.26
2022-08-26T10:25:20.414Z,101540.30
2022-08-26T10:27:53.754Z,101539.63
2022-08-26T10:30:27.771Z,101538.81
2022-08-26T10:33:02.395Z,101535.92
2022-08-26T10:35:35.258Z,101523.45
2022-08-26T10:38:11.531Z,101535.45
2022-08-26T10:40:41.219Z,101533.70
2022-08-26T10:43:20.228Z,101533.83
2022-08-26T10:45:57.313Z,101539.49
2022-08-26T10:48:41.241Z,101537.19
2022-08-26T10:51:12.911Z,101524.64
2022-08-26T10:53:56.056Z,101538.40
2022-08-26T10:56:49.184Z,101539.14
2022-08-26T10:59:17.919Z,101537.05
2022-08-26T11:01:58.208Z,101534.54
2022-08-26T11:04:48.126Z,101530.37
2022-08-26T11:07:28.603Z,101527.88
2022-08-26T11:10:17.764Z,101522.38
2022-08-26T11:12:49.136Z,101521.14
2022-08-26T11:15:24.793Z,101517.25
2022-08-26T11:17:53.056Z,101517.58
2022-08-26T11:20:51.055Z,101512.77
2022-08-26T11:23:27.343Z,101509.16
2022-08-26T11:26:36.273Z,101505.17
2022-08-26T11:30:00.180Z,101502.98
2022-08-26T11:32:34.487Z,101503.17
2022-08-26T11:35:23.022Z,101502.00
2022-08-26T11:37:57.528Z,101505.86
2022-08-26T11:40:29.911Z,101506.13
2022-08-26T11:43:02.811Z,101501.52
2022-08-26T11:45:42.332Z,101497.30
2022-08-26T11:48:36.778Z,101501.27
2022-08-26T11:51:22.154Z,101497.77
2022-08-26T11:53:51.412Z,101495.13
2022-08-26T11:56:31.804Z,101491.40
2022-08-26T11:59:04.338Z,101485.61
2022-08-26T12:01:36.818Z,101485.52
2022-08-26T12:04:07.783Z,101476.21
2022-08-26T12:06:42.034Z,101465.17
2022-08-26T12:09:24.887Z,101474.66
2022-08-26T12:11:58.045Z,101464.94
2022-08-26T12:14:27.759Z,101467.20
2022-08-26T12:17:19.321Z,101463.65
2022-08-26T12:19:50.650Z,101461.38
2022-08-26T12:22:36.093Z,101452.26
2022-08-26T12:25:08.764Z,101460.77
2022-08-26T12:27:45.532Z,101458.22
2022-08-26T12:30:24.550Z,101455.31
2022-08-26T12:33:22.195Z,101456.97
2022-08-26T12:35:56.620Z,101455.66
2022-08-26T12:38:27.211Z,101453.77
2022-08-26T12:40:57.198Z,101450.11
2022-08-26T12:43:46.009Z,101444.20
2022-08-26T12:46:24.851Z,101449.47
2022-08-26T12:48:53.175Z,101438.98
2022-08-26T12:51:30.643Z,101441.05
2022-08-26T12:53:59.740Z,101440.44
2022-08-26T12:56:39.696Z,101437.57
2022-08-26T12:59:21.575Z,101435.83
2022-08-26T13:01:50.160Z,101431.19
2022-08-26T13:04:35.543Z,101429.50
2022-08-26T13:07:25.243Z,101428.98
2022-08-26T13:09:56.539Z,101431.10
2022-08-26T13:12:31.099Z,101431.11
2022-08-26T13:15:01.501Z,101425.97
2022-08-26T13:17:30.556Z,101419.82
2022-08-26T13:20:03.832Z,101416.96
2022-08-26T13:22:33.761Z,101413.94
2022-08-26T13:25:02.056Z,101411.75
2022-08-26T13:27:30.766Z,101409.41
2022-08-26T13:29:59.975Z,101405.96
2022-08-26T13:32:29.029Z,101401.52
2022-08-26T13:34:57.940Z,101398.99
2022-08-26T13:37:34.345Z,101392.93
2022-08-26T13:40:06.717Z,101390.09
2022-08-26T13:42:35.037Z,101388.24
2022-08-26T13:45:04.101Z,101388.66
2022-08-26T13:47:32.515Z,101386.66
2022-08-26T13:50:00.769Z,101380.64
2022-08-26T13:52:30.688Z,101384.55
2022-08-26T13:55:00.739Z,101377.40
2022-08-26T13:57:30.392Z,101375.72
2022-08-26T13:59:59.665Z,101372.65
2022-08-26T14:02:28.531Z,101373.49
2022-08-26T14:04:56.868Z,101365.90
2022-08-26T14:07:26.452Z,101366.95
2022-08-26T14:09:55.088Z,101366.19
2022-08-26T14:12:23.379Z,101360.13
2022-08-26T14:14:51.625Z,101354.51
2022-08-26T14:17:22.932Z,101354.51
2022-08-26T14:19:51.772Z,101350.14
2022-08-26T14:22:22.219Z,101348.05
2022-08-26T14:24:51.255Z,101345.84
2022-08-26T14:27:19.515Z,101346.23
2022-08-26T14:29:47.963Z,101340.60
2022-08-26T14:32:24.925Z,101339.32
2022-08-26T14:34:55.323Z,101342.86
2022-08-26T14:37:24.238Z,101341.38
2022-08-26T14:39:52.794Z,101336.36
2022-08-26T14:42:26.775Z,101333.02
2022-08-26T14:45:02.287Z,101330.16
2022-08-26T14:47:30.747Z,101318.42
2022-08-26T14:49:59.040Z,101326.64
2022-08-26T14:52:27.879Z,101320.52
2022-08-26T14:54:56.103Z,101319.71
2022-08-26T14:57:24.424Z,101316.86
2022-08-26T14:59:52.659Z,101317.67
2022-08-26T15:02:33.102Z,101317.16
2022-08-26T15:05:03.023Z,101314.15
2022-08-26T15:07:31.303Z,101315.27
2022-08-26T15:09:59.899Z,101311.30
2022-08-26T15:12:28.198Z,101310.85
2022-08-26T15:14:56.424Z,101308.55
2022-08-26T15:17:25.042Z,101307.69
2022-08-26T15:19:53.259Z,101307.04
2022-08-26T15:22:21.503Z,101301.94
2022-08-26T15:24:51.858Z,101302.11
2022-08-26T15:27:22.106Z,101275.96
2022-08-26T15:29:50.433Z,101280.59
2022-08-26T15:32:18.692Z,101277.98
2022-08-26T15:34:47.105Z,101276.70
2022-08-26T15:37:15.356Z,101287.45
2022-08-26T15:39:44.349Z,101283.95
2022-08-26T15:42:12.601Z,101283.94
2022-08-26T15:44:45.610Z,101277.63
2022-08-26T15:47:13.733Z,101278.06
2022-08-26T15:49:42.029Z,101275.42
2022-08-26T15:52:10.770Z,101271.62
2022-08-26T15:54:39.817Z,101274.55
2022-08-26T15:57:11.471Z,101269.00
2022-08-26T15:59:40.786Z,101270.38
2022-08-26T16:02:09.828Z,101269.63
2022-08-26T16:04:38.288Z,101258.55
2022-08-26T16:07:06.609Z,101271.27
2022-08-26T16:09:35.193Z,101270.17
2022-08-26T16:12:03.724Z,101269.08
2022-08-26T16:14:31.986Z,101266.67
2022-08-26T16:17:00.280Z,101264.20
2022-08-26T16:19:28.782Z,101260.17
2022-08-26T16:21:57.005Z,101263.44
2022-08-26T16:24:30.175Z,101268.58
2022-08-26T16:26:58.946Z,101270.16
2022-08-26T16:29:27.839Z,101272.11
2022-08-26T16:31:56.150Z,101270.06
2022-08-26T16:34:24.467Z,101271.52
2022-08-26T16:36:53.284Z,101271.81
2022-08-26T16:39:21.542Z,101267.39
2022-08-26T16:41:50.372Z,101268.36
2022-08-26T16:44:19.506Z,101270.27
2022-08-26T16:46:48.299Z,101265.33
2022-08-26T16:49:16.710Z,101265.02
2022-08-26T16:51:45.970Z,101253.30
2022-08-26T16:54:14.178Z,101267.28
2022-08-26T16:56:42.431Z,101267.63
2022-08-26T16:59:11.711Z,101269.15
2022-08-26T17:01:40.205Z,101267.80
2022-08-26T17:04:08.821Z,101271.65
2022-08-26T17:06:37.396Z,101275.61
2022-08-26T17:09:06.018Z,101274.97
2022-08-26T17:11:35.576Z,101271.35
2022-08-26T17:14:04.620Z,101275.41
2022-08-26T17:16:32.909Z,101274.73
2022-08-26T17:19:02.726Z,101272.12
2022-08-26T17:21:33.550Z,101275.52
2022-08-26T17:24:02.278Z,101272.66
2022-08-26T17:26:30.720Z,101273.58
2022-08-26T17:29:00.194Z,101274.05
2022-08-26T17:31:28.496Z,101273.88
2022-08-26T17:33:56.854Z,101273.94
2022-08-26T17:36:28.195Z,101271.56
2022-08-26T17:38:58.335Z,101272.61
2022-08-26T17:41:27.642Z,101271.96
2022-08-26T17:43:56.695Z,101275.49
2022-08-26T17:46:25.108Z,101277.81
2022-08-26T17:48:53.324Z,101280.43
2022-08-26T17:51:23.031Z,101281.48
2022-08-26T17:53:52.582Z,101282.05
2022-08-26T17:56:25.835Z,101288.10
2022-08-26T17:58:56.901Z,101286.48
2022-08-26T18:01:27.726Z,101286.75
2022-08-26T18:04:00.257Z,101291.90
2022-08-26T18:06:30.738Z,101295.52
2022-08-26T18:09:00.078Z,101291.52
2022-08-26T18:11:31.202Z,101294.05
2022-08-26T18:14:00.447Z,101295.67
2022-08-26T18:16:31.821Z,101288.20
2022-08-26T18:19:00.627Z,101299.08
2022-08-26T18:21:28.970Z,101298.66
2022-08-26T18:23:57.480Z,101300.48
2022-08-26T18:26:35.707Z,101302.73
2022-08-26T18:29:05.192Z,101305.44
2022-08-26T18:31:34.487Z,101309.42
2022-08-26T18:34:03.232Z,101308.17
2022-08-26T18:36:35.215Z,101311.34
2022-08-26T18:39:05.419Z,101315.08
2022-08-26T18:41:42.706Z,101314.84
2022-08-26T18:44:13.595Z,101318.41
2022-08-26T18:46:42.599Z,101320.98
2022-08-26T18:49:12.699Z,101321.77
2022-08-26T18:51:45.080Z,101321.63
2022-08-26T18:54:13.665Z,101322.39
2022-08-26T18:56:42.572Z,101322.05
2022-08-26T18:59:11.767Z,101323.05
2022-08-26T19:01:42.477Z,101325.52
2022-08-26T19:04:12.885Z,101327.06
2022-08-26T19:06:47.010Z,101327.06
2022-08-26T19:09:17.962Z,101324.22
2022-08-26T19:11:48.918Z,101324.61
2022-08-26T19:14:18.828Z,101323.65
2022-08-26T19:16:49.714Z,101324.91
2022-08-26T19:19:18.980Z,101324.70
2022-08-26T19:21:47.309Z,101326.91
2022-08-26T19:24:17.690Z,101330.16
2022-08-26T19:26:49.649Z,101322.70
2022-08-26T19:29:22.857Z,101331.08
2022-08-26T19:31:51.084Z,101330.67
2022-08-26T19:34:20.931Z,101330.01
2022-08-26T19:36:51.847Z,101331.15
2022-08-26T19:39:21.277Z,101328.98
2022-08-26T19:41:49.496Z,101325.52
2022-08-26T19:44:39.084Z,101323.50
2022-08-26T19:47:09.417Z,101337.39
2022-08-26T19:49:39.318Z,101335.13
2022-08-26T19:52:07.794Z,101338.69
2022-08-26T19:54:36.373Z,101340.09
2022-08-26T19:57:05.817Z,101342.36
2022-08-26T19:59:36.230Z,101343.59
2022-08-26T20:02:09.983Z,101344.66
2022-08-26T20:04:39.484Z,101348.70
2022-08-26T20:07:09.243Z,101347.61
2022-08-26T20:09:38.572Z,101346.58
2022-08-26T20:12:07.284Z,101347.77
2022-08-26T20:14:36.420Z,101347.94
2022-08-26T20:17:05.799Z,101349.58
2022-08-26T20:19:53.076Z,101353.63
2022-08-26T20:22:22.136Z,101345.63
2022-08-26T20:24:50.767Z,101346.88
2022-08-26T20:27:19.235Z,101344.41
2022-08-26T20:29:47.428Z,101346.05
2022-08-26T20:32:15.717Z,101341.71
2022-08-26T20:34:44.017Z,101348.77
2022-08-26T20:37:12.501Z,101345.88
2022-08-26T20:39:41.612Z,101343.84
2022-08-26T20:42:20.418Z,101347.25
2022-08-26T20:44:54.298Z,101345.94
2022-08-26T20:47:23.521Z,101343.98
2022-08-26T20:49:52.297Z,101345.13
2022-08-26T20:52:20.912Z,101345.39
2022-08-26T20:54:49.164Z,101315.95
2022-08-26T20:57:17.516Z,101341.00
2022-08-26T20:59:45.756Z,101336.58
2022-08-26T21:02:14.024Z,101337.15
2022-08-26T21:04:42.335Z,101333.02
2022-08-26T21:07:10.632Z,101333.88
2022-08-26T21:09:38.812Z,101334.39
2022-08-26T21:12:07.424Z,101336.15
2022-08-26T21:14:35.649Z,101337.39
2022-08-26T21:17:04.540Z,101332.75
2022-08-26T21:19:32.728Z,101332.98
2022-08-26T21:22:01.033Z,101330.50
2022-08-26T21:24:29.404Z,101326.33
2022-08-26T21:26:57.977Z,101326.82
2022-08-26T21:29:26.254Z,101329.77
2022-08-26T21:31:54.596Z,101329.84
2022-08-26T21:34:22.905Z,101331.47
2022-08-26T21:36:51.109Z,101330.25
2022-08-26T21:39:19.410Z,101329.21
2022-08-26T21:41:48.091Z,101321.75
2022-08-26T21:44:18.408Z,101322.47
2022-08-26T21:46:47.191Z,101324.16
2022-08-26T21:49:16.513Z,101324.81
2022-08-26T21:51:47.141Z,101326.11
2022-08-26T21:54:16.041Z,101329.34
2022-08-26T21:56:47.930Z,101330.29
2022-08-26T21:59:18.758Z,101334.88
2022-08-26T22:01:49.239Z,101338.77
2022-08-26T22:04:18.442Z,101342.66
2022-08-26T22:06:49.642Z,101338.67
2022-08-26T22:09:22.783Z,101337.80
2022-08-26T22:11:52.304Z,101335.84
2022-08-26T22:14:30.511Z,101332.23
2022-08-26T22:17:00.165Z,101336.79
2022-08-26T22:19:30.026Z,101332.92
2022-08-26T22:21:58.654Z,101328.99
2022-08-26T22:24:27.790Z,101332.05
2022-08-26T22:26:57.042Z,101333.48
2022-08-26T22:29:25.894Z,101337.73
2022-08-26T22:31:54.219Z,101335.92
2022-08-26T22:34:23.410Z,101335.86
2022-08-26T22:36:51.690Z,101333.73
2022-08-26T22:39:23.582Z,101329.23
2022-08-26T22:41:54.051Z,101334.20
2022-08-26T22:44:22.791Z,101330.20
2022-08-26T22:46:57.148Z,101330.04
2022-08-26T22:49:25.562Z,101327.68
2022-08-26T22:51:53.870Z,101334.42
2022-08-26T22:54:22.087Z,101334.13
2022-08-26T22:56:50.394Z,101332.58
2022-08-26T22:59:18.842Z,101328.72
2022-08-26T23:01:48.235Z,101329.70
2022-08-26T23:04:16.444Z,101328.02
2022-08-26T23:06:47.490Z,101327.27
2022-08-26T23:09:18.864Z,101323.05
2022-08-26T23:12:13.287Z,101321.54
2022-08-26T23:14:41.680Z,101317.12
2022-08-26T23:17:12.098Z,101311.89
2022-08-26T23:19:40.309Z,101315.48
2022-08-26T23:22:08.718Z,101314.67
2022-08-26T23:24:37.215Z,101313.23
2022-08-26T23:27:05.600Z,101314.09
2022-08-26T23:29:33.883Z,101312.95
2022-08-26T23:32:04.802Z,101311.11
2022-08-26T23:34:52.267Z,101309.71
2022-08-26T23:37:21.995Z,101306.95
2022-08-26T23:39:51.746Z,101308.85
2022-08-26T23:42:20.082Z,101306.42
2022-08-26T23:44:49.568Z,101292.98
2022-08-26T23:47:18.135Z,101306.11
2022-08-26T23:49:46.336Z,101302.83
2022-08-26T23:52:33.151Z,101303.20
2022-08-26T23:55:01.407Z,101300.16
2022-08-26T23:57:29.607Z,101298.22
2022-08-26T23:59:58.117Z,101295.25
